createdAt,value
2017-08-23T00:01:08.680Z,7.37
2017-08-23T00:03:38.714Z,7.30
2017-08-23T00:06:06.907Z,7.67
2017-08-23T00:08:35.206Z,7.87
2017-08-23T00:11:03.596Z,7.37
2017-08-23T00:13:31.876Z,8.33
2017-08-23T00:16:00.124Z,5.63
2017-08-23T00:18:29.140Z,7.97
2017-08-23T00:20:57.416Z,7.80
2017-08-23T00:23:25.603Z,30.47
2017-08-23T00:25:53.760Z,12.47
2017-08-23T00:28:21.969Z,7.10
2017-08-23T00:30:50.161Z,4.53
2017-08-23T00:33:18.388Z,5.43
2017-08-23T00:35:46.571Z,7.83
2017-08-23T00:38:14.786Z,8.53
2017-08-23T00:40:43.027Z,6.50
2017-08-23T00:43:11.204Z,11.63
2017-08-23T00:45:39.379Z,8.70
2017-08-23T00:48:07.580Z,7.03
2017-08-23T00:50:36.030Z,5.00
2017-08-23T00:53:04.714Z,5.47
2017-08-23T00:55:33.977Z,6.13
2017-08-23T00:58:03.169Z,7.50
2017-08-23T01:00:31.649Z,8.57
2017-08-23T01:02:59.925Z,5.27
2017-08-23T01:05:28.237Z,7.90
2017-08-23T01:07:57.187Z,10.87
2017-08-23T01:10:25.462Z,5.57
2017-08-23T01:12:53.798Z,7.23
2017-08-23T01:15:22.024Z,8.60
2017-08-23T01:17:50.386Z,7.83
2017-08-23T01:20:18.630Z,4.70
2017-08-23T01:22:46.933Z,8.83
2017-08-23T01:25:15.183Z,5.47
2017-08-23T01:27:45.172Z,6.87
2017-08-23T01:30:13.552Z,6.77
2017-08-23T01:32:41.901Z,6.40
2017-08-23T01:35:10.197Z,9.83
2017-08-23T01:37:38.973Z,6.43
2017-08-23T01:40:07.248Z,7.53
2017-08-23T01:42:35.447Z,7.03
2017-08-23T01:45:03.724Z,10.50
2017-08-23T01:47:32.776Z,8.50
2017-08-23T01:50:01.130Z,7.00
2017-08-23T01:52:30.172Z,11.27
2017-08-23T01:54:58.446Z,9.23
2017-08-23T01:57:26.981Z,9.00
2017-08-23T01:59:55.259Z,9.03
2017-08-23T02:02:24.307Z,9.63
2017-08-23T02:04:52.531Z,8.93
2017-08-23T02:07:20.814Z,12.70
2017-08-23T02:09:49.077Z,10.03
2017-08-23T02:12:17.482Z,11.60
2017-08-23T02:14:46.176Z,10.30
2017-08-23T02:17:14.430Z,11.73
2017-08-23T02:19:43.571Z,9.00
2017-08-23T02:22:12.442Z,11.60
2017-08-23T02:24:42.508Z,7.10
2017-08-23T02:27:10.736Z,7.70
2017-08-23T02:29:38.963Z,10.30
2017-08-23T02:32:07.184Z,6.30
2017-08-23T02:34:35.432Z,8.73
2017-08-23T02:37:03.633Z,10.93
2017-08-23T02:39:32.042Z,10.60
2017-08-23T02:42:00.260Z,9.60
2017-08-23T02:44:28.478Z,7.87
2017-08-23T02:46:56.677Z,6.47
2017-08-23T02:49:24.891Z,6.70
2017-08-23T02:51:53.678Z,5.93
2017-08-23T02:54:21.914Z,8.87
2017-08-23T02:56:50.117Z,9.03
2017-08-23T02:59:18.416Z,9.70
2017-08-23T03:01:46.832Z,9.60
2017-08-23T03:04:15.660Z,7.73
2017-08-23T03:06:43.985Z,9.00
2017-08-23T03:09:12.177Z,12.80
2017-08-23T03:11:40.451Z,12.73
2017-08-23T03:14:09.753Z,9.37
2017-08-23T03:16:38.233Z,7.83
2017-08-23T03:19:07.640Z,8.70
2017-08-23T03:21:36.147Z,5.30
2017-08-23T03:24:04.483Z,7.53
2017-08-23T03:26:33.178Z,6.63
2017-08-23T03:29:02.508Z,6.10
2017-08-23T03:31:30.810Z,8.60
2017-08-23T03:33:59.027Z,12.53
2017-08-23T03:36:27.399Z,6.90
2017-08-23T03:38:57.287Z,7.17
2017-08-23T03:41:25.600Z,6.20
2017-08-23T03:43:53.876Z,8.50
2017-08-23T03:46:22.854Z,8.30
2017-08-23T03:48:51.872Z,11.17
2017-08-23T03:51:20.265Z,8.30
2017-08-23T03:53:48.554Z,7.57
2017-08-23T03:56:17.197Z,7.57
2017-08-23T03:58:45.470Z,6.17
2017-08-23T04:01:13.929Z,8.90
2017-08-23T04:03:42.817Z,7.50
2017-08-23T04:06:11.085Z,6.90
2017-08-23T04:08:39.372Z,9.23
2017-08-23T04:11:07.630Z,8.50
2017-08-23T04:13:35.953Z,7.80
2017-08-23T04:16:04.204Z,8.90
2017-08-23T04:18:32.427Z,6.60
2017-08-23T04:21:00.673Z,6.90
2017-08-23T04:23:28.941Z,6.87
2017-08-23T04:25:57.325Z,7.17
2017-08-23T04:28:25.678Z,6.73
2017-08-23T04:30:54.117Z,8.30
2017-08-23T04:33:22.652Z,7.17
2017-08-23T04:35:50.836Z,6.63
2017-08-23T04:38:19.867Z,8.40
2017-08-23T04:40:48.292Z,7.97
2017-08-23T04:43:16.474Z,8.53
2017-08-23T04:48:19.102Z,12.20
2017-08-23T04:50:47.561Z,6.80
2017-08-23T04:53:16.664Z,10.67
2017-08-23T04:55:44.963Z,8.63
2017-08-23T04:58:13.268Z,7.67
2017-08-23T05:00:41.718Z,7.53
2017-08-23T05:03:10.138Z,7.33
2017-08-23T05:05:38.487Z,7.43
2017-08-23T05:08:07.451Z,7.97
2017-08-23T05:10:35.872Z,9.20
2017-08-23T05:13:04.093Z,9.57
2017-08-23T05:15:32.283Z,11.53
2017-08-23T05:18:00.457Z,7.60
2017-08-23T05:20:28.901Z,8.10
2017-08-23T05:22:57.119Z,10.20
2017-08-23T05:25:25.351Z,9.77
2017-08-23T05:27:54.250Z,7.30
2017-08-23T05:30:22.426Z,7.30
2017-08-23T05:32:50.680Z,9.90
2017-08-23T05:35:18.906Z,9.70
2017-08-23T05:37:47.149Z,9.43
2017-08-23T05:40:15.913Z,9.00
2017-08-23T05:42:44.108Z,10.67
2017-08-23T05:45:12.336Z,7.53
2017-08-23T05:47:41.471Z,8.30
2017-08-23T05:50:09.726Z,9.27
2017-08-23T05:52:37.906Z,8.80
2017-08-23T05:55:06.099Z,9.97
2017-08-23T05:57:34.331Z,12.17
2017-08-23T06:00:03.659Z,8.67
2017-08-23T06:02:31.994Z,7.73
2017-08-23T06:05:00.281Z,9.70
2017-08-23T06:07:28.975Z,12.27
2017-08-23T06:09:58.707Z,8.70
2017-08-23T06:12:26.917Z,8.10
2017-08-23T06:14:55.139Z,8.50
2017-08-23T06:17:23.329Z,11.57
2017-08-23T06:19:51.563Z,9.40
2017-08-23T06:22:20.693Z,9.73
2017-08-23T06:24:51.868Z,9.87
2017-08-23T06:27:21.345Z,7.03
2017-08-23T06:29:50.548Z,9.93
2017-08-23T06:32:19.103Z,12.80
2017-08-23T06:34:48.117Z,13.50
2017-08-23T06:37:16.353Z,13.10
2017-08-23T06:39:44.936Z,15.00
2017-08-23T06:42:13.393Z,14.30
2017-08-23T06:44:41.868Z,15.00
2017-08-23T06:47:10.436Z,12.50
2017-08-23T06:49:39.076Z,12.30
2017-08-23T06:52:07.339Z,10.37
2017-08-23T06:54:36.693Z,9.03
2017-08-23T06:57:05.067Z,13.13
2017-08-23T06:59:33.411Z,10.43
2017-08-23T07:02:03.304Z,9.23
2017-08-23T07:04:31.736Z,7.73
2017-08-23T07:06:59.878Z,7.43
2017-08-23T07:09:28.748Z,8.40
2017-08-23T07:11:58.081Z,9.00
2017-08-23T07:14:26.425Z,7.70
2017-08-23T07:16:54.677Z,7.83
2017-08-23T07:19:23.775Z,6.77
2017-08-23T07:21:51.949Z,6.80
2017-08-23T07:24:20.235Z,7.77
2017-08-23T07:26:48.631Z,5.10
2017-08-23T07:29:16.881Z,5.10
2017-08-23T07:31:45.438Z,4.23
2017-08-23T07:34:14.297Z,4.27
2017-08-23T07:36:43.164Z,3.90
2017-08-23T07:39:11.439Z,6.10
2017-08-23T07:41:39.886Z,3.77
2017-08-23T07:44:08.763Z,5.60
2017-08-23T07:47:01.580Z,3.80
2017-08-23T07:49:33.967Z,5.10
2017-08-23T07:52:03.128Z,5.00
2017-08-23T07:54:33.005Z,4.97
2017-08-23T07:57:02.307Z,5.10
2017-08-23T07:59:31.547Z,5.17
2017-08-23T08:02:08.086Z,4.83
2017-08-23T08:04:36.365Z,5.30
2017-08-23T08:07:04.999Z,4.57
2017-08-23T08:09:33.458Z,3.60
2017-08-23T08:12:01.689Z,5.83
2017-08-23T08:14:29.886Z,5.37
2017-08-23T08:16:58.166Z,4.80
2017-08-23T08:19:26.374Z,4.27
2017-08-23T08:21:54.521Z,3.83
2017-08-23T08:24:22.751Z,5.33
2017-08-23T08:26:50.970Z,3.37
2017-08-23T08:29:19.209Z,4.93
2017-08-23T08:31:47.471Z,5.80
2017-08-23T08:34:16.003Z,3.70
2017-08-23T08:36:44.438Z,3.93
2017-08-23T08:39:13.684Z,4.97
2017-08-23T08:41:41.927Z,4.93
2017-08-23T08:44:10.125Z,4.20
2017-08-23T08:46:38.327Z,5.63
2017-08-23T08:49:06.544Z,3.73
2017-08-23T08:51:34.709Z,3.60
2017-08-23T08:54:04.013Z,3.70
2017-08-23T08:56:32.263Z,4.10
2017-08-23T08:59:00.756Z,3.00
2017-08-23T09:01:29.973Z,4.43
2017-08-23T09:03:58.179Z,5.03
2017-08-23T09:06:26.438Z,5.20
2017-08-23T09:08:56.120Z,5.17
2017-08-23T09:11:24.354Z,6.77
2017-08-23T09:13:52.571Z,4.40
2017-08-23T09:16:20.759Z,3.90
2017-08-23T09:18:48.985Z,5.67
2017-08-23T09:21:17.173Z,3.60
2017-08-23T09:23:45.729Z,3.30
2017-08-23T09:26:13.892Z,3.37
2017-08-23T09:28:42.016Z,4.20
2017-08-23T09:31:10.185Z,3.37
2017-08-23T09:33:38.357Z,3.27
2017-08-23T09:36:06.574Z,5.33
2017-08-23T09:38:34.735Z,2.83
2017-08-23T09:41:02.928Z,4.23
2017-08-23T09:43:31.249Z,3.17
2017-08-23T09:45:59.466Z,5.90
2017-08-23T09:48:27.627Z,3.27
2017-08-23T09:50:55.823Z,3.47
2017-08-23T09:53:23.988Z,3.80
2017-08-23T09:55:52.252Z,2.80
2017-08-23T09:58:20.448Z,2.37
2017-08-23T10:00:48.610Z,3.67
2017-08-23T10:03:16.819Z,4.10
2017-08-23T10:05:45.007Z,2.60
2017-08-23T10:08:13.350Z,3.93
2017-08-23T10:10:41.616Z,2.77
2017-08-23T10:13:09.842Z,4.67
2017-08-23T10:15:38.071Z,3.53
2017-08-23T10:18:07.066Z,9.50
2017-08-23T10:20:36.000Z,2.70
2017-08-23T10:23:04.160Z,2.50
2017-08-23T10:25:32.525Z,3.20
2017-08-23T10:28:00.980Z,3.17
2017-08-23T10:30:30.272Z,2.10
2017-08-23T10:32:58.420Z,1.80
2017-08-23T10:35:27.354Z,2.07
2017-08-23T10:37:55.566Z,2.17
2017-08-23T10:40:24.638Z,2.20
2017-08-23T10:42:52.922Z,2.40
2017-08-23T10:45:22.185Z,66.53
2017-08-23T10:47:50.538Z,30.47
2017-08-23T10:50:18.734Z,3.33
2017-08-23T10:52:46.883Z,3.13
2017-08-23T10:55:15.061Z,2.70
2017-08-23T10:57:43.277Z,1.60
2017-08-23T11:00:11.449Z,2.63
2017-08-23T11:02:39.627Z,2.77
2017-08-23T11:05:07.849Z,3.83
2017-08-23T11:07:36.070Z,3.97
2017-08-23T11:10:04.428Z,2.13
2017-08-23T11:12:32.681Z,2.23
2017-08-23T11:15:01.037Z,2.77
2017-08-23T11:17:29.337Z,2.57
2017-08-23T11:19:57.564Z,2.10
2017-08-23T11:22:25.904Z,4.20
2017-08-23T11:24:54.160Z,2.10
2017-08-23T11:27:22.542Z,2.33
2017-08-23T11:29:50.735Z,2.30
2017-08-23T11:32:19.709Z,2.70
2017-08-23T11:34:47.897Z,2.70
2017-08-23T11:37:16.271Z,1.63
2017-08-23T11:39:44.435Z,2.90
2017-08-23T11:42:12.643Z,2.27
2017-08-23T11:44:40.964Z,4.50
2017-08-23T11:47:09.212Z,2.37
2017-08-23T11:49:37.381Z,2.30
2017-08-23T11:52:05.582Z,2.73
2017-08-23T11:54:33.859Z,5.23
2017-08-23T11:57:02.052Z,3.90
2017-08-23T11:59:30.270Z,2.57
2017-08-23T12:01:58.577Z,3.27
2017-08-23T12:04:26.844Z,2.20
2017-08-23T12:06:55.083Z,4.23
2017-08-23T12:09:23.343Z,2.20
2017-08-23T12:11:51.682Z,2.80
2017-08-23T12:14:19.882Z,4.00
2017-08-23T12:16:49.148Z,1.90
2017-08-23T12:19:18.191Z,2.27
2017-08-23T12:21:46.461Z,1.90
2017-08-23T12:24:14.639Z,2.17
2017-08-23T12:26:42.911Z,1.97
2017-08-23T12:29:11.712Z,1.40
2017-08-23T12:31:40.668Z,1.40
2017-08-23T12:34:08.944Z,1.60
2017-08-23T12:36:37.280Z,1.83
2017-08-23T12:39:05.449Z,1.60
2017-08-23T12:41:34.075Z,2.23
2017-08-23T12:44:02.502Z,2.40
2017-08-23T12:46:30.680Z,2.60
2017-08-23T12:48:58.917Z,3.33
2017-08-23T12:51:27.958Z,1.97
2017-08-23T12:53:56.502Z,2.20
2017-08-23T12:56:25.044Z,2.20
2017-08-23T12:58:53.446Z,1.80
2017-08-23T13:01:21.756Z,1.80
2017-08-23T13:03:50.016Z,1.80
2017-08-23T13:06:18.449Z,1.90
2017-08-23T13:08:47.338Z,2.87
2017-08-23T13:11:15.726Z,2.20
2017-08-23T13:13:43.977Z,2.37
2017-08-23T13:16:12.450Z,3.40
2017-08-23T13:18:40.648Z,6.57
2017-08-23T13:21:08.905Z,6.40
2017-08-23T13:23:37.143Z,22.00
2017-08-23T13:26:05.420Z,5.47
2017-08-23T13:28:34.024Z,14.57
2017-08-23T13:31:02.158Z,7.73
2017-08-23T13:33:30.419Z,10.50
2017-08-23T13:35:58.771Z,18.13
2017-08-23T13:38:34.354Z,9.27
2017-08-23T13:41:03.029Z,10.20
2017-08-23T13:43:31.596Z,8.30
2017-08-23T13:46:00.089Z,3.97
2017-08-23T13:48:28.352Z,6.10
2017-08-23T13:50:56.540Z,4.87
2017-08-23T13:53:24.769Z,3.70
2017-08-23T13:55:52.994Z,4.50
2017-08-23T13:58:21.185Z,3.00
2017-08-23T14:00:50.345Z,5.50
2017-08-23T14:03:18.594Z,8.43
2017-08-23T14:05:46.775Z,6.73
2017-08-23T14:08:15.125Z,20.10
2017-08-23T14:10:43.317Z,11.70
2017-08-23T14:13:11.517Z,26.87
2017-08-23T14:15:39.914Z,38.83
2017-08-23T14:18:09.813Z,22.13
2017-08-23T14:20:38.619Z,12.67
2017-08-23T14:23:07.450Z,10.60
2017-08-23T14:25:35.658Z,4.30
2017-08-23T14:28:04.037Z,8.80
2017-08-23T14:30:32.421Z,6.90
2017-08-23T14:33:01.447Z,7.80
2017-08-23T14:35:30.393Z,5.43
2017-08-23T14:37:59.177Z,4.10
2017-08-23T14:40:27.382Z,2.60
2017-08-23T14:42:55.941Z,6.23
2017-08-23T14:45:24.219Z,3.90
2017-08-23T14:47:53.006Z,4.63
2017-08-23T14:50:21.886Z,2.60
2017-08-23T14:52:50.251Z,4.67
2017-08-23T14:55:18.446Z,2.30
2017-08-23T14:57:46.758Z,4.07
2017-08-23T15:00:15.105Z,2.33
2017-08-23T15:02:44.126Z,2.23
2017-08-23T15:05:13.056Z,2.90
2017-08-23T15:07:41.832Z,2.47
2017-08-23T15:10:10.145Z,2.57
2017-08-23T15:12:39.059Z,5.00
2017-08-23T15:15:07.432Z,1.80
2017-08-23T15:17:35.609Z,4.13
2017-08-23T15:20:03.862Z,1.77
2017-08-23T15:22:32.372Z,2.00
2017-08-23T15:25:00.875Z,4.90
2017-08-23T15:27:29.106Z,3.97
2017-08-23T15:29:57.275Z,2.00
2017-08-23T15:32:25.601Z,2.00
2017-08-23T15:34:53.745Z,2.27
2017-08-23T15:37:22.033Z,2.10
2017-08-23T15:39:50.945Z,3.40
2017-08-23T15:42:19.138Z,4.20
2017-08-23T15:44:48.259Z,3.50
2017-08-23T15:47:16.402Z,2.77
2017-08-23T15:49:44.728Z,1.77
2017-08-23T15:52:13.267Z,3.13
2017-08-23T15:54:41.646Z,1.90
2017-08-23T15:57:09.873Z,1.67
2017-08-23T15:59:38.149Z,2.70
2017-08-23T16:02:06.524Z,3.43
2017-08-23T16:04:34.818Z,2.70
2017-08-23T16:07:03.044Z,1.93
2017-08-23T16:09:31.557Z,2.90
2017-08-23T16:11:59.854Z,2.30
2017-08-23T16:14:28.078Z,6.50
2017-08-23T16:16:56.354Z,2.17
2017-08-23T16:19:24.588Z,4.17
2017-08-23T16:21:52.824Z,1.93
2017-08-23T16:24:20.993Z,3.30
2017-08-23T16:26:49.287Z,2.60
2017-08-23T16:31:41.926Z,2.33
2017-08-23T16:34:10.309Z,2.23
2017-08-23T16:36:42.227Z,4.43
2017-08-23T16:39:10.775Z,1.70
2017-08-23T16:41:39.010Z,1.97
2017-08-23T16:44:07.232Z,3.20
2017-08-23T16:46:35.428Z,3.30
2017-08-23T16:49:03.670Z,1.83
2017-08-23T16:51:31.923Z,3.60
2017-08-23T16:54:00.130Z,2.13
2017-08-23T16:56:29.018Z,4.80
2017-08-23T16:58:57.509Z,2.27
2017-08-23T17:01:25.744Z,2.50
2017-08-23T17:03:54.570Z,3.40
2017-08-23T17:06:22.735Z,1.80
2017-08-23T17:08:51.018Z,2.70
2017-08-23T17:11:19.983Z,3.07
2017-08-23T17:13:48.175Z,2.63
2017-08-23T17:16:16.353Z,3.10
2017-08-23T17:18:44.528Z,2.60
2017-08-23T17:21:12.695Z,3.83
2017-08-23T17:23:41.680Z,1.97
2017-08-23T17:26:09.871Z,2.23
2017-08-23T17:28:38.213Z,6.13
2017-08-23T17:31:06.454Z,2.60
2017-08-23T17:33:34.775Z,3.83
2017-08-23T17:36:03.001Z,3.10
2017-08-23T17:38:31.332Z,13.13
2017-08-23T17:40:59.527Z,34.80
2017-08-23T17:43:27.779Z,6.87
2017-08-23T17:48:30.473Z,3.40
2017-08-23T17:50:58.644Z,4.30
2017-08-23T17:53:26.845Z,3.27
2017-08-23T17:55:55.086Z,4.63
2017-08-23T17:58:23.264Z,4.00
2017-08-23T18:00:52.450Z,3.27
2017-08-23T18:03:20.619Z,3.23
2017-08-23T18:05:48.839Z,4.07
2017-08-23T18:08:17.692Z,3.23
2017-08-23T18:10:45.956Z,3.63
2017-08-23T18:13:14.244Z,4.20
2017-08-23T18:15:42.465Z,4.80
2017-08-23T18:18:10.778Z,6.07
2017-08-23T18:20:39.043Z,5.17
2017-08-23T18:23:07.276Z,5.63
2017-08-23T18:25:35.464Z,6.17
2017-08-23T18:28:04.234Z,4.10
2017-08-23T18:30:32.492Z,5.67
2017-08-23T18:33:01.383Z,4.60
2017-08-23T18:35:29.960Z,4.83
2017-08-23T18:37:58.180Z,5.40
2017-08-23T18:40:26.443Z,6.00
2017-08-23T18:42:55.474Z,3.50
2017-08-23T18:45:23.670Z,4.87
2017-08-23T18:48:03.276Z,7.23
2017-08-23T18:50:33.091Z,4.80
2017-08-23T18:53:01.517Z,4.10
2017-08-23T18:55:30.579Z,5.37
2017-08-23T18:57:59.263Z,29.13
2017-08-23T19:00:28.101Z,43.87
2017-08-23T19:02:56.847Z,65.13
2017-08-23T19:09:17.255Z,65.30
2017-08-23T19:12:15.698Z,36.17
2017-08-23T19:15:00.622Z,17.30
2017-08-23T19:17:28.900Z,11.63
2017-08-23T19:19:57.084Z,13.33
2017-08-23T19:22:25.668Z,18.17
2017-08-23T19:24:53.830Z,22.13
2017-08-23T19:27:21.994Z,24.27
2017-08-23T19:29:50.872Z,24.10
2017-08-23T19:32:19.122Z,21.17
2017-08-23T19:34:47.334Z,15.87
2017-08-23T19:37:15.534Z,36.87
2017-08-23T19:39:43.730Z,34.87
2017-08-23T19:42:12.693Z,16.10
2017-08-23T19:44:41.127Z,18.83
2017-08-23T19:47:09.513Z,33.00
2017-08-23T19:49:37.660Z,23.30
2017-08-23T19:52:05.839Z,14.17
2017-08-23T19:54:37.645Z,11.60
2017-08-23T19:57:06.333Z,10.33
2017-08-23T19:59:35.224Z,9.80
2017-08-23T20:02:03.500Z,11.40
2017-08-23T20:04:32.472Z,9.40
2017-08-23T20:07:00.631Z,9.10
2017-08-23T20:09:28.945Z,7.43
2017-08-23T20:11:57.114Z,8.23
2017-08-23T20:14:25.330Z,20.23
2017-08-23T20:16:53.684Z,34.77
2017-08-23T20:19:21.950Z,47.50
2017-08-23T20:21:51.578Z,37.23
2017-08-23T20:24:19.991Z,32.53
2017-08-23T20:26:48.947Z,28.10
2017-08-23T20:29:17.143Z,15.50
2017-08-23T20:31:45.388Z,17.00
2017-08-23T20:34:13.898Z,12.37
2017-08-23T20:36:42.708Z,9.13
2017-08-23T20:39:10.915Z,9.37
2017-08-23T20:41:39.217Z,9.77
2017-08-23T20:44:07.471Z,10.10
2017-08-23T20:46:36.159Z,8.20
2017-08-23T20:49:04.480Z,8.50
2017-08-23T20:51:32.817Z,9.37
2017-08-23T20:54:01.084Z,10.93
2017-08-23T20:56:29.302Z,9.90
2017-08-23T20:58:57.459Z,8.23
2017-08-23T21:01:25.721Z,10.63
2017-08-23T21:03:53.979Z,8.23
2017-08-23T21:06:22.283Z,11.30
2017-08-23T21:08:51.288Z,9.03
2017-08-23T21:11:20.979Z,7.60
2017-08-23T21:13:49.356Z,6.77
2017-08-23T21:18:53.358Z,9.53
2017-08-23T21:21:21.615Z,8.30
2017-08-23T21:23:49.920Z,8.13
2017-08-23T21:26:18.136Z,9.20
2017-08-23T21:28:46.998Z,7.40
2017-08-23T21:31:15.923Z,9.97
2017-08-23T21:33:45.078Z,10.90
2017-08-23T21:36:13.448Z,8.20
2017-08-23T21:38:41.665Z,9.60
2017-08-23T21:41:09.943Z,6.77
2017-08-23T21:43:38.765Z,7.03
2017-08-23T21:46:07.014Z,7.63
2017-08-23T21:48:36.035Z,9.33
2017-08-23T21:51:04.244Z,10.00
2017-08-23T21:53:32.651Z,8.43
2017-08-23T21:56:00.906Z,8.60
2017-08-23T21:58:29.272Z,8.80
2017-08-23T22:00:57.547Z,9.13
2017-08-23T22:03:25.802Z,7.83
2017-08-23T22:05:54.056Z,8.30
2017-08-23T22:08:22.405Z,12.10
2017-08-23T22:10:50.718Z,12.57
2017-08-23T22:13:18.929Z,12.00
2017-08-23T22:15:47.146Z,12.47
2017-08-23T22:18:15.378Z,10.47
2017-08-23T22:20:43.554Z,11.17
2017-08-23T22:23:11.813Z,9.43
2017-08-23T22:25:39.985Z,11.47
2017-08-23T22:28:08.175Z,13.97
2017-08-23T22:30:36.967Z,13.00
2017-08-23T22:33:05.195Z,8.37
2017-08-23T22:35:33.463Z,10.37
2017-08-23T22:38:01.658Z,9.97
2017-08-23T22:40:29.822Z,17.80
2017-08-23T22:42:58.070Z,12.23
2017-08-23T22:45:26.373Z,10.07
2017-08-23T22:47:54.551Z,12.90
2017-08-23T22:50:22.719Z,8.13
2017-08-23T22:52:50.953Z,10.30
2017-08-23T22:55:19.164Z,9.77
2017-08-23T22:57:47.370Z,10.00
2017-08-23T23:00:15.666Z,10.37
2017-08-23T23:02:43.862Z,12.07
2017-08-23T23:05:12.044Z,9.13
2017-08-23T23:07:40.290Z,8.50
2017-08-23T23:10:08.551Z,12.10
2017-08-23T23:12:37.331Z,9.60
2017-08-23T23:15:05.509Z,9.73
2017-08-23T23:17:34.344Z,13.27
2017-08-23T23:20:02.571Z,8.70
2017-08-23T23:22:30.766Z,8.63
2017-08-23T23:24:58.995Z,9.80
2017-08-23T23:27:27.913Z,10.33
2017-08-23T23:29:56.698Z,12.33
2017-08-23T23:32:25.563Z,12.23
2017-08-23T23:34:53.740Z,10.40
2017-08-23T23:37:21.986Z,10.50
2017-08-23T23:39:50.911Z,13.37
2017-08-23T23:42:19.915Z,8.30
2017-08-23T23:44:48.387Z,10.30
2017-08-23T23:47:16.794Z,8.80
2017-08-23T23:49:45.103Z,10.67
2017-08-23T23:52:13.353Z,8.80
2017-08-23T23:54:41.549Z,8.20
2017-08-23T23:57:10.467Z,8.97
2017-08-23T23:59:38.678Z,9.10
